KLWS/LWS METAR and TAF weather

Enter ICAO airport designator
Station Type Date Time Source
KLWS METAR 2019/08/24 16:56 UTC NOAA

KLWS 241656Z 00000KT 10SM CLR 26/10 A2984 RMK AO2 SLP094 T02560100 $


Station Type Date Time Source
KLWS Decoded METAR 2019/08/24 16:56 UTC NOAA

Station name not available
Aug 24, 2019 - 12:56 PM EDT / 2019.08.24 1656 UTC
Wind: Calm:0
Visibility: 10 mile(s):0
Sky conditions: clear
Temperature: 78.1 F (25.6 C)
Dew Point: 50.0 F (10.0 C)
Relative Humidity: 37%
Pressure (altimeter): 29.84 in. Hg (1010 hPa)
ob: KLWS 241656Z 00000KT 10SM CLR 26/10 A2984 RMK AO2 SLP094 T02560100
cycle: 17

Station Type Date Time Source
KLWS TAF 2019/08/24 18:22 UTC NOAA

TAF KLWS 241720Z 2418/2518 31008KT P6SM SCT200
FM242030 30013G19KT P6SM SCT200
FM250300 27008KT P6SM FEW200
FM250700 25004KT P6SM SKC

Example: see airport list